sensor_id;sensor_type;location;lat;lon;timestamp;pressure;altitude;pressure_sealevel;temperature;humidity
7058;BME280;3570;43.080;25.628;2022-12-18T00:01:57;-19731.44;;;9.54;100.00
7058;BME280;3570;43.080;25.628;2022-12-18T00:04:42;-19731.00;;;9.52;100.00
7058;BME280;3570;43.080;25.628;2022-12-18T00:07:26;-19730.25;;;9.50;100.00
7058;BME280;3570;43.080;25.628;2022-12-18T00:10:10;-19737.00;;;9.73;100.00
7058;BME280;3570;43.080;25.628;2022-12-18T00:12:54;-19735.81;;;9.69;100.00
7058;BME280;3570;43.080;25.628;2022-12-18T00:15:39;-19742.09;;;9.91;100.00
7058;BME280;3570;43.080;25.628;2022-12-18T00:18:23;-19734.50;;;9.65;100.00
7058;BME280;3570;43.080;25.628;2022-12-18T00:21:09;-19741.38;;;9.88;100.00
7058;BME280;3570;43.080;25.628;2022-12-18T00:23:53;-19734.94;;;9.66;100.00
7058;BME280;3570;43.080;25.628;2022-12-18T00:26:38;-19732.91;;;9.59;100.00
7058;BME280;3570;43.080;25.628;2022-12-18T00:29:23;-19724.56;;;9.30;100.00
7058;BME280;3570;43.080;25.628;2022-12-18T00:32:07;-19728.81;;;9.45;100.00
7058;BME280;3570;43.080;25.628;2022-12-18T00:34:51;-19733.78;;;9.62;100.00
7058;BME280;3570;43.080;25.628;2022-12-18T00:37:35;-19732.16;;;9.57;100.00
7058;BME280;3570;43.080;25.628;2022-12-18T00:40:19;-19723.41;;;9.26;100.00
7058;BME280;3570;43.080;25.628;2022-12-18T00:43:03;-19731.16;;;9.53;100.00
7058;BME280;3570;43.080;25.628;2022-12-18T00:45:47;-19734.22;;;9.64;100.00
7058;BME280;3570;43.080;25.628;2022-12-18T00:48:31;-19732.31;;;9.57;100.00
7058;BME280;3570;43.080;25.628;2022-12-18T00:51:15;-19729.69;;;9.48;100.00
7058;BME280;3570;43.080;25.628;2022-12-18T00:53:59;-19729.97;;;9.49;100.00
7058;BME280;3570;43.080;25.628;2022-12-18T00:56:43;-19721.19;;;9.19;100.00
7058;BME280;3570;43.080;25.628;2022-12-18T00:59:27;-19730.13;;;9.49;100.00
7058;BME280;3570;43.080;25.628;2022-12-18T01:02:11;-19734.34;;;9.64;100.00
7058;BME280;3570;43.080;25.628;2022-12-18T01:04:57;-19737.88;;;9.76;100.00
7058;BME280;3570;43.080;25.628;2022-12-18T01:07:41;-19737.56;;;9.75;100.00
7058;BME280;3570;43.080;25.628;2022-12-18T01:10:25;-19740.19;;;9.84;100.00
7058;BME280;3570;43.080;25.628;2022-12-18T01:13:09;-19735.22;;;9.67;100.00
7058;BME280;3570;43.080;25.628;2022-12-18T01:15:53;-19727.94;;;9.42;100.00
7058;BME280;3570;43.080;25.628;2022-12-18T01:18:37;-19724.84;;;9.31;100.00
7058;BME280;3570;43.080;25.628;2022-12-18T01:21:22;-19725.00;;;9.32;100.00
7058;BME280;3570;43.080;25.628;2022-12-18T01:24:07;-19725.00;;;9.32;100.00
7058;BME280;3570;43.080;25.628;2022-12-18T01:26:51;-19719.59;;;9.13;100.00
7058;BME280;3570;43.080;25.628;2022-12-18T01:29:34;-19726.91;;;9.38;100.00
7058;BME280;3570;43.080;25.628;2022-12-18T01:32:19;-19725.75;;;9.34;100.00
7058;BME280;3570;43.080;25.628;2022-12-18T01:35:03;-19716.97;;;9.04;100.00
7058;BME280;3570;43.080;25.628;2022-12-18T01:37:47;-19725.00;;;9.32;100.00
7058;BME280;3570;43.080;25.628;2022-12-18T01:40:31;-19725.00;;;9.32;100.00
7058;BME280;3570;43.080;25.628;2022-12-18T01:43:15;-19724.13;;;9.29;100.00
7058;BME280;3570;43.080;25.628;2022-12-18T01:45:59;-19722.53;;;9.23;100.00
7058;BME280;3570;43.080;25.628;2022-12-18T01:48:50;-19723.69;;;9.27;100.00
7058;BME280;3570;43.080;25.628;2022-12-18T01:51:35;-19723.53;;;9.27;100.00
7058;BME280;3570;43.080;25.628;2022-12-18T01:54:18;-19721.94;;;9.21;100.00
7058;BME280;3570;43.080;25.628;2022-12-18T01:57:03;-19721.06;;;9.18;100.00
7058;BME280;3570;43.080;25.628;2022-12-18T01:59:49;-19725.88;;;9.35;100.00
7058;BME280;3570;43.080;25.628;2022-12-18T02:02:35;-19729.81;;;9.48;100.00
7058;BME280;3570;43.080;25.628;2022-12-18T02:08:22;-19729.25;;;9.46;100.00
7058;BME280;3570;43.080;25.628;2022-12-18T02:17:06;-19723.53;;;9.27;100.00
7058;BME280;3570;43.080;25.628;2022-12-18T02:20:12;-19727.63;;;9.41;100.00
7058;BME280;3570;43.080;25.628;2022-12-18T02:26:05;-19728.81;;;9.45;100.00
7058;BME280;3570;43.080;25.628;2022-12-18T02:29:05;-19724.56;;;9.30;100.00
7058;BME280;3570;43.080;25.628;2022-12-18T02:31:59;-19720.03;;;9.15;100.00
7058;BME280;3570;43.080;25.628;2022-12-18T02:34:46;-19731.88;;;9.56;100.00
7058;BME280;3570;43.080;25.628;2022-12-18T02:37:30;-19719.75;;;9.14;100.00
7058;BME280;3570;43.080;25.628;2022-12-18T02:40:17;-19722.53;;;9.23;100.00
7058;BME280;3570;43.080;25.628;2022-12-18T02:43:07;-19721.34;;;9.19;100.00
7058;BME280;3570;43.080;25.628;2022-12-18T02:45:57;-19714.47;;;8.96;100.00
7058;BME280;3570;43.080;25.628;2022-12-18T02:48:41;-19698.97;;;8.42;100.00
7058;BME280;3570;43.080;25.628;2022-12-18T02:51:55;-19698.25;;;8.40;100.00
7058;BME280;3570;43.080;25.628;2022-12-18T02:57:55;-19692.38;;;8.20;100.00
7058;BME280;3570;43.080;25.628;2022-12-18T03:03:48;-19677.91;;;7.70;100.00
7058;BME280;3570;43.080;25.628;2022-12-18T03:06:40;-19686.81;;;8.01;100.00
7058;BME280;3570;43.080;25.628;2022-12-18T03:09:32;-19686.09;;;7.98;100.00
7058;BME280;3570;43.080;25.628;2022-12-18T03:12:21;-19688.28;;;8.06;100.00
7058;BME280;3570;43.080;25.628;2022-12-18T03:15:14;-19681.72;;;7.83;100.00
7058;BME280;3570;43.080;25.628;2022-12-18T03:18:10;-19686.25;;;7.99;100.00
7058;BME280;3570;43.080;25.628;2022-12-18T03:20:59;-19687.28;;;8.02;100.00
7058;BME280;3570;43.080;25.628;2022-12-18T03:23:48;-19688.16;;;8.05;100.00
7058;BME280;3570;43.080;25.628;2022-12-18T03:26:34;-19688.16;;;8.05;100.00
7058;BME280;3570;43.080;25.628;2022-12-18T03:29:24;-19686.09;;;7.98;100.00
7058;BME280;3570;43.080;25.628;2022-12-18T03:32:16;-19678.19;;;7.71;100.00
7058;BME280;3570;43.080;25.628;2022-12-18T03:35:05;-19679.81;;;7.77;100.00
7058;BME280;3570;43.080;25.628;2022-12-18T03:37:50;-19682.28;;;7.85;100.00
7058;BME280;3570;43.080;25.628;2022-12-18T03:46:34;-19671.16;;;7.47;100.00
7058;BME280;3570;43.080;25.628;2022-12-18T03:49:47;-19674.38;;;7.58;100.00
7058;BME280;3570;43.080;25.628;2022-12-18T03:52:40;-19666.63;;;7.31;100.00
7058;BME280;3570;43.080;25.628;2022-12-18T03:55:27;-19676.00;;;7.63;100.00
7058;BME280;3570;43.080;25.628;2022-12-18T03:58:17;-19676.00;;;7.63;100.00
7058;BME280;3570;43.080;25.628;2022-12-18T04:01:06;-19667.22;;;7.33;100.00
7058;BME280;3570;43.080;25.628;2022-12-18T04:03:52;-19669.56;;;7.41;100.00
7058;BME280;3570;43.080;25.628;2022-12-18T04:06:38;-19645.53;;;6.59;100.00
7058;BME280;3570;43.080;25.628;2022-12-18T04:09:23;-19664.00;;;7.22;100.00
7058;BME280;3570;43.080;25.628;2022-12-18T04:12:08;-19669.41;;;7.41;100.00
7058;BME280;3570;43.080;25.628;2022-12-18T04:14:52;-19665.03;;;7.26;100.00
7058;BME280;3570;43.080;25.628;2022-12-18T04:17:37;-19661.06;;;7.12;100.00
7058;BME280;3570;43.080;25.628;2022-12-18T04:20:21;-19652.13;;;6.82;100.00
7058;BME280;3570;43.080;25.628;2022-12-18T04:23:05;-19662.25;;;7.16;100.00
7058;BME280;3570;43.080;25.628;2022-12-18T04:25:49;-19659.47;;;7.07;100.00
7058;BME280;3570;43.080;25.628;2022-12-18T04:28:33;-19664.16;;;7.23;100.00
7058;BME280;3570;43.080;25.628;2022-12-18T04:31:17;-19669.69;;;7.42;100.00
7058;BME280;3570;43.080;25.628;2022-12-18T04:34:01;-19671.31;;;7.47;100.00
7058;BME280;3570;43.080;25.628;2022-12-18T04:36:45;-19663.56;;;7.21;100.00
7058;BME280;3570;43.080;25.628;2022-12-18T04:39:30;-19664.16;;;7.23;100.00
7058;BME280;3570;43.080;25.628;2022-12-18T04:42:14;-19669.41;;;7.41;100.00
7058;BME280;3570;43.080;25.628;2022-12-18T04:44:58;-19668.09;;;7.36;100.00
7058;BME280;3570;43.080;25.628;2022-12-18T04:47:42;-19675.84;;;7.63;100.00
7058;BME280;3570;43.080;25.628;2022-12-18T04:50:26;-19680.25;;;7.78;100.00
7058;BME280;3570;43.080;25.628;2022-12-18T04:53:10;-19678.34;;;7.72;100.00
7058;BME280;3570;43.080;25.628;2022-12-18T04:56:09;-19676.16;;;7.64;100.00
7058;BME280;3570;43.080;25.628;2022-12-18T04:58:54;-19670.72;;;7.45;100.00
7058;BME280;3570;43.080;25.628;2022-12-18T05:01:37;-19673.50;;;7.55;100.00
7058;BME280;3570;43.080;25.628;2022-12-18T05:04:22;-19667.94;;;7.36;100.00
7058;BME280;3570;43.080;25.628;2022-12-18T05:07:05;-19676.44;;;7.65;100.00
7058;BME280;3570;43.080;25.628;2022-12-18T05:09:50;-19674.81;;;7.59;100.00
7058;BME280;3570;43.080;25.628;2022-12-18T05:12:33;-19677.03;;;7.67;100.00
7058;BME280;3570;43.080;25.628;2022-12-18T05:15:37;-19673.94;;;7.56;100.00
7058;BME280;3570;43.080;25.628;2022-12-18T05:18:22;-19675.56;;;7.62;100.00
7058;BME280;3570;43.080;25.628;2022-12-18T05:21:07;-19677.31;;;7.68;100.00
7058;BME280;3570;43.080;25.628;2022-12-18T05:23:51;-19673.94;;;7.56;100.00
7058;BME280;3570;43.080;25.628;2022-12-18T05:26:35;-19667.22;;;7.33;100.00
7058;BME280;3570;43.080;25.628;2022-12-18T05:29:19;-19670.00;;;7.43;100.00
7058;BME280;3570;43.080;25.628;2022-12-18T05:32:03;-19668.97;;;7.39;100.00
7058;BME280;3570;43.080;25.628;2022-12-18T05:34:47;-19668.38;;;7.37;100.00
7058;BME280;3570;43.080;25.628;2022-12-18T05:37:31;-19668.09;;;7.36;100.00
7058;BME280;3570;43.080;25.628;2022-12-18T05:40:15;-19675.25;;;7.61;100.00
7058;BME280;3570;43.080;25.628;2022-12-18T05:42:59;-19674.38;;;7.58;100.00
7058;BME280;3570;43.080;25.628;2022-12-18T05:45:44;-19670.59;;;7.45;100.00
7058;BME280;3570;43.080;25.628;2022-12-18T05:48:28;-19675.72;;;7.63;100.00
7058;BME280;3570;43.080;25.628;2022-12-18T05:51:15;-19672.63;;;7.52;100.00
7058;BME280;3570;43.080;25.628;2022-12-18T05:53:59;-19677.03;;;7.67;100.00
7058;BME280;3570;43.080;25.628;2022-12-18T05:56:43;-19665.31;;;7.27;100.00
7058;BME280;3570;43.080;25.628;2022-12-18T05:59:27;-19677.59;;;7.69;100.00
7058;BME280;3570;43.080;25.628;2022-12-18T06:02:11;-19673.81;;;7.56;100.00
7058;BME280;3570;43.080;25.628;2022-12-18T06:04:55;-19665.59;;;7.28;100.00
7058;BME280;3570;43.080;25.628;2022-12-18T06:07:39;-19661.22;;;7.13;100.00
7058;BME280;3570;43.080;25.628;2022-12-18T06:10:23;-19661.50;;;7.14;100.00
7058;BME280;3570;43.080;25.628;2022-12-18T06:13:07;-19656.81;;;6.98;100.00
7058;BME280;3570;43.080;25.628;2022-12-18T06:15:51;-19655.81;;;6.94;100.00
7058;BME280;3570;43.080;25.628;2022-12-18T06:18:35;-19656.81;;;6.98;100.00
7058;BME280;3570;43.080;25.628;2022-12-18T06:21:19;-19651.41;;;6.79;100.00
7058;BME280;3570;43.080;25.628;2022-12-18T06:24:03;-19649.06;;;6.71;100.00
7058;BME280;3570;43.080;25.628;2022-12-18T06:26:48;-19655.06;;;6.92;100.00
7058;BME280;3570;43.080;25.628;2022-12-18T06:29:32;-19668.53;;;7.38;100.00
7058;BME280;3570;43.080;25.628;2022-12-18T06:32:16;-19672.63;;;7.52;100.00
7058;BME280;3570;43.080;25.628;2022-12-18T06:35:00;-19669.41;;;7.41;100.00
7058;BME280;3570;43.080;25.628;2022-12-18T06:37:44;-19668.53;;;7.38;100.00
7058;BME280;3570;43.080;25.628;2022-12-18T06:40:28;-19674.09;;;7.57;100.00
7058;BME280;3570;43.080;25.628;2022-12-18T06:43:13;-19668.53;;;7.38;100.00
7058;BME280;3570;43.080;25.628;2022-12-18T06:46:00;-19674.53;;;7.58;100.00
7058;BME280;3570;43.080;25.628;2022-12-18T06:48:47;-19675.25;;;7.61;100.00
7058;BME280;3570;43.080;25.628;2022-12-18T06:51:32;-19677.91;;;7.70;100.00
7058;BME280;3570;43.080;25.628;2022-12-18T06:54:16;-19674.97;;;7.60;100.00
7058;BME280;3570;43.080;25.628;2022-12-18T06:57:00;-19662.25;;;7.16;100.00
7058;BME280;3570;43.080;25.628;2022-12-18T06:59:44;-19659.75;;;7.08;100.00
7058;BME280;3570;43.080;25.628;2022-12-18T07:02:28;-19660.34;;;7.10;100.00
7058;BME280;3570;43.080;25.628;2022-12-18T07:05:12;-19663.13;;;7.19;100.00
7058;BME280;3570;43.080;25.628;2022-12-18T07:07:56;-19655.66;;;6.94;100.00
7058;BME280;3570;43.080;25.628;2022-12-18T07:10:42;-19659.31;;;7.06;100.00
7058;BME280;3570;43.080;25.628;2022-12-18T07:13:26;-19667.06;;;7.33;100.00
7058;BME280;3570;43.080;25.628;2022-12-18T07:16:15;-19675.25;;;7.61;100.00
7058;BME280;3570;43.080;25.628;2022-12-18T07:19:00;-19676.44;;;7.65;100.00
7058;BME280;3570;43.080;25.628;2022-12-18T07:21:44;-19667.81;;;7.35;100.00
7058;BME280;3570;43.080;25.628;2022-12-18T07:24:28;-19676.72;;;7.66;100.00
7058;BME280;3570;43.080;25.628;2022-12-18T07:27:12;-19680.25;;;7.78;100.00
7058;BME280;3570;43.080;25.628;2022-12-18T07:29:56;-19690.94;;;8.15;100.00
7058;BME280;3570;43.080;25.628;2022-12-18T07:32:40;-19686.81;;;8.01;100.00
7058;BME280;3570;43.080;25.628;2022-12-18T07:35:24;-19689.47;;;8.10;100.00
7058;BME280;3570;43.080;25.628;2022-12-18T07:38:08;-19693.13;;;8.22;100.00
7058;BME280;3570;43.080;25.628;2022-12-18T07:40:52;-19682.44;;;7.86;100.00
7058;BME280;3570;43.080;25.628;2022-12-18T07:43:36;-19673.50;;;7.55;100.00
7058;BME280;3570;43.080;25.628;2022-12-18T07:46:21;-19689.03;;;8.08;100.00
7058;BME280;3570;43.080;25.628;2022-12-18T07:49:04;-19681.41;;;7.82;100.00
7058;BME280;3570;43.080;25.628;2022-12-18T07:51:48;-19692.53;;;8.20;100.00
7058;BME280;3570;43.080;25.628;2022-12-18T07:54:33;-19692.81;;;8.21;100.00
7058;BME280;3570;43.080;25.628;2022-12-18T07:57:17;-19699.84;;;8.45;100.00
7058;BME280;3570;43.080;25.628;2022-12-18T08:00:01;-19702.78;;;8.55;100.00
7058;BME280;3570;43.080;25.628;2022-12-18T08:02:46;-19697.38;;;8.37;100.00
7058;BME280;3570;43.080;25.628;2022-12-18T08:05:30;-19683.47;;;7.89;100.00
7058;BME280;3570;43.080;25.628;2022-12-18T08:08:14;-19687.84;;;8.04;100.00
7058;BME280;3570;43.080;25.628;2022-12-18T08:10:58;-19689.59;;;8.10;100.00
7058;BME280;3570;43.080;25.628;2022-12-18T08:13:42;-19691.50;;;8.17;100.00
7058;BME280;3570;43.080;25.628;2022-12-18T08:16:26;-19695.75;;;8.31;100.00
7058;BME280;3570;43.080;25.628;2022-12-18T08:19:10;-19689.31;;;8.09;100.00
7058;BME280;3570;43.080;25.628;2022-12-18T08:21:55;-19698.09;;;8.39;100.00
7058;BME280;3570;43.080;25.628;2022-12-18T08:24:38;-19701.16;;;8.50;100.00
7058;BME280;3570;43.080;25.628;2022-12-18T08:27:22;-19699.13;;;8.43;100.00
7058;BME280;3570;43.080;25.628;2022-12-18T08:30:07;-19704.81;;;8.63;100.00
7058;BME280;3570;43.080;25.628;2022-12-18T08:32:51;-19709.06;;;8.77;100.00
7058;BME280;3570;43.080;25.628;2022-12-18T08:35:37;-19710.09;;;8.81;100.00
7058;BME280;3570;43.080;25.628;2022-12-18T08:38:21;-19706.13;;;8.67;100.00
7058;BME280;3570;43.080;25.628;2022-12-18T08:41:09;-19713.88;;;8.94;100.00
7058;BME280;3570;43.080;25.628;2022-12-18T08:43:53;-19709.81;;;8.80;100.00
7058;BME280;3570;43.080;25.628;2022-12-18T08:46:56;-19714.47;;;8.96;100.00
7058;BME280;3570;43.080;25.628;2022-12-18T08:49:40;-19708.63;;;8.76;100.00
7058;BME280;3570;43.080;25.628;2022-12-18T08:52:24;-19707.16;;;8.71;100.00
7058;BME280;3570;43.080;25.628;2022-12-18T08:55:08;-19708.91;;;8.77;100.00
7058;BME280;3570;43.080;25.628;2022-12-18T08:57:53;-19706.00;;;8.67;100.00
7058;BME280;3570;43.080;25.628;2022-12-18T09:00:37;-19709.50;;;8.79;100.00
7058;BME280;3570;43.080;25.628;2022-12-18T09:03:21;-19703.66;;;8.59;100.00
7058;BME280;3570;43.080;25.628;2022-12-18T09:06:06;-19696.94;;;8.35;100.00
7058;BME280;3570;43.080;25.628;2022-12-18T09:08:50;-19692.25;;;8.19;100.00
7058;BME280;3570;43.080;25.628;2022-12-18T09:11:34;-19678.03;;;7.71;100.00
7058;BME280;3570;43.080;25.628;2022-12-18T09:14:18;-19676.44;;;7.65;100.00
7058;BME280;3570;43.080;25.628;2022-12-18T09:17:02;-19680.53;;;7.79;100.00
7058;BME280;3570;43.080;25.628;2022-12-18T09:19:47;-19683.59;;;7.90;100.00
7058;BME280;3570;43.080;25.628;2022-12-18T09:22:30;-19680.25;;;7.78;100.00
7058;BME280;3570;43.080;25.628;2022-12-18T09:25:14;-19676.72;;;7.66;100.00
7058;BME280;3570;43.080;25.628;2022-12-18T09:27:59;-19679.38;;;7.75;100.00
7058;BME280;3570;43.080;25.628;2022-12-18T09:30:49;-19669.41;;;7.41;100.00
7058;BME280;3570;43.080;25.628;2022-12-18T09:33:36;-19670.88;;;7.46;100.00
7058;BME280;3570;43.080;25.628;2022-12-18T09:36:20;-19672.63;;;7.52;100.00
7058;BME280;3570;43.080;25.628;2022-12-18T09:39:04;-19662.69;;;7.18;100.00
7058;BME280;3570;43.080;25.628;2022-12-18T09:41:53;-19672.34;;;7.51;100.00
7058;BME280;3570;43.080;25.628;2022-12-18T09:44:44;-19672.63;;;7.52;100.00
7058;BME280;3570;43.080;25.628;2022-12-18T09:47:35;-19670.28;;;7.44;100.00
7058;BME280;3570;43.080;25.628;2022-12-18T09:50:31;-19684.50;;;7.93;100.00
7058;BME280;3570;43.080;25.628;2022-12-18T09:53:20;-19682.59;;;7.86;100.00
7058;BME280;3570;43.080;25.628;2022-12-18T09:56:12;-19687.28;;;8.02;100.00
7058;BME280;3570;43.080;25.628;2022-12-18T09:59:02;-19686.81;;;8.01;100.00
7058;BME280;3570;43.080;25.628;2022-12-18T10:01:46;-19693.84;;;8.25;100.00
7058;BME280;3570;43.080;25.628;2022-12-18T10:04:31;-19696.94;;;8.35;100.00
7058;BME280;3570;43.080;25.628;2022-12-18T10:07:26;-19698.38;;;8.40;100.00
7058;BME280;3570;43.080;25.628;2022-12-18T10:13:27;-19682.88;;;7.87;100.00
7058;BME280;3570;43.080;25.628;2022-12-18T10:16:17;-19697.66;;;8.38;98.43
7058;BME280;3570;43.080;25.628;2022-12-18T10:28:36;-19725.16;;;9.32;90.59
7058;BME280;3570;43.080;25.628;2022-12-18T10:31:24;-19714.63;;;8.96;89.11
7058;BME280;3570;43.080;25.628;2022-12-18T10:34:11;-19704.38;;;8.61;91.00
7058;BME280;3570;43.080;25.628;2022-12-18T10:36:56;-19708.63;;;8.76;91.65
7058;BME280;3570;43.080;25.628;2022-12-18T10:39:40;-19704.81;;;8.63;90.99
7058;BME280;3570;43.080;25.628;2022-12-18T10:42:24;-19719.59;;;9.13;90.98
7058;BME280;3570;43.080;25.628;2022-12-18T10:45:14;-19719.88;;;9.14;88.83
7058;BME280;3570;43.080;25.628;2022-12-18T10:47:59;-19720.31;;;9.16;89.33
7058;BME280;3570;43.080;25.628;2022-12-18T10:50:46;-19714.19;;;8.95;89.43
7058;BME280;3570;43.080;25.628;2022-12-18T10:53:33;-19714.19;;;8.95;91.33
7058;BME280;3570;43.080;25.628;2022-12-18T10:56:19;-19707.16;;;8.71;89.93
7058;BME280;3570;43.080;25.628;2022-12-18T10:59:09;-19695.16;;;8.29;90.59
7058;BME280;3570;43.080;25.628;2022-12-18T11:01:56;-19695.75;;;8.31;91.62
7058;BME280;3570;43.080;25.628;2022-12-18T11:04:50;-19706.00;;;8.67;92.12
7058;BME280;3570;43.080;25.628;2022-12-18T11:07:48;-19714.91;;;8.97;89.41
7058;BME280;3570;43.080;25.628;2022-12-18T11:10:37;-19707.47;;;8.72;89.63
7058;BME280;3570;43.080;25.628;2022-12-18T11:13:25;-19710.53;;;8.82;89.99
7058;BME280;3570;43.080;25.628;2022-12-18T11:16:18;-19722.66;;;9.24;88.42
7058;BME280;3570;43.080;25.628;2022-12-18T11:19:35;-19715.66;;;9.00;85.46
7058;BME280;3570;43.080;25.628;2022-12-18T11:22:23;-19723.41;;;9.26;84.71
7058;BME280;3570;43.080;25.628;2022-12-18T11:28:39;-19728.50;;;9.44;84.68
7058;BME280;3570;43.080;25.628;2022-12-18T11:31:27;-19738.75;;;9.79;83.05
7058;BME280;3570;43.080;25.628;2022-12-18T11:34:31;-19718.00;;;9.08;83.93
7058;BME280;3570;43.080;25.628;2022-12-18T11:37:17;-19725.59;;;9.34;85.92
7058;BME280;3570;43.080;25.628;2022-12-18T11:40:17;-19714.63;;;8.96;86.27
7058;BME280;3570;43.080;25.628;2022-12-18T11:43:09;-19712.72;;;8.90;87.30
7058;BME280;3570;43.080;25.628;2022-12-18T11:46:01;-19715.66;;;9.00;87.29
7058;BME280;3570;43.080;25.628;2022-12-18T11:52:38;-19705.25;;;8.64;86.80
7058;BME280;3570;43.080;25.628;2022-12-18T11:54:59;-19714.63;;;8.96;87.19
7058;BME280;3570;43.080;25.628;2022-12-18T12:07:23;-19698.09;;;8.39;91.06
7058;BME280;3570;43.080;25.628;2022-12-18T12:13:19;-19684.78;;;7.94;90.96
7058;BME280;3570;43.080;25.628;2022-12-18T12:21:41;-19678.19;;;7.71;91.11
7058;BME280;3570;43.080;25.628;2022-12-18T12:36:34;-19676.72;;;7.66;91.66
7058;BME280;3570;43.080;25.628;2022-12-18T12:39:27;-19678.34;;;7.72;91.20
7058;BME280;3570;43.080;25.628;2022-12-18T12:42:44;-19674.81;;;7.59;93.33
7058;BME280;3570;43.080;25.628;2022-12-18T12:45:57;-19672.19;;;7.50;92.81
7058;BME280;3570;43.080;25.628;2022-12-18T12:48:50;-19670.00;;;7.43;93.69
7058;BME280;3570;43.080;25.628;2022-12-18T12:51:38;-19674.97;;;7.60;93.58
7058;BME280;3570;43.080;25.628;2022-12-18T12:54:25;-19681.41;;;7.82;92.63
7058;BME280;3570;43.080;25.628;2022-12-18T12:57:23;-19674.97;;;7.60;91.31
7058;BME280;3570;43.080;25.628;2022-12-18T13:00:16;-19681.84;;;7.84;92.85
7058;BME280;3570;43.080;25.628;2022-12-18T13:06:23;-19681.56;;;7.83;92.36
7058;BME280;3570;43.080;25.628;2022-12-18T13:09:13;-19670.16;;;7.43;92.33
7058;BME280;3570;43.080;25.628;2022-12-18T13:12:03;-19673.22;;;7.54;92.78
7058;BME280;3570;43.080;25.628;2022-12-18T13:15:21;-19677.31;;;7.68;92.02
7058;BME280;3570;43.080;25.628;2022-12-18T13:18:19;-19672.34;;;7.51;92.04
7058;BME280;3570;43.080;25.628;2022-12-18T13:21:28;-19671.03;;;7.46;93.05
7058;BME280;3570;43.080;25.628;2022-12-18T13:24:26;-19668.25;;;7.37;93.90
7058;BME280;3570;43.080;25.628;2022-12-18T13:36:30;-19661.81;;;7.15;95.14
7058;BME280;3570;43.080;25.628;2022-12-18T13:44:49;-19654.47;;;6.90;97.88
7058;BME280;3570;43.080;25.628;2022-12-18T13:50:23;-19657.56;;;7.00;98.55
7058;BME280;3570;43.080;25.628;2022-12-18T13:53:20;-19655.66;;;6.94;99.01
7058;BME280;3570;43.080;25.628;2022-12-18T13:56:05;-19659.31;;;7.06;100.00
7058;BME280;3570;43.080;25.628;2022-12-18T14:01:53;-19659.47;;;7.07;100.00
7058;BME280;3570;43.080;25.628;2022-12-18T14:04:38;-19654.47;;;6.90;99.72
7058;BME280;3570;43.080;25.628;2022-12-18T14:07:28;-19647.59;;;6.66;98.34
7058;BME280;3570;43.080;25.628;2022-12-18T14:10:15;-19650.09;;;6.75;100.00
7058;BME280;3570;43.080;25.628;2022-12-18T14:13:05;-19642.91;;;6.50;100.00
7058;BME280;3570;43.080;25.628;2022-12-18T14:15:50;-19645.84;;;6.60;100.00
7058;BME280;3570;43.080;25.628;2022-12-18T14:21:30;-19649.50;;;6.73;100.00
7058;BME280;3570;43.080;25.628;2022-12-18T14:24:21;-19647.16;;;6.64;100.00
7058;BME280;3570;43.080;25.628;2022-12-18T14:27:22;-19653.00;;;6.85;100.00
7058;BME280;3570;43.080;25.628;2022-12-18T14:33:11;-19649.94;;;6.74;100.00
7058;BME280;3570;43.080;25.628;2022-12-18T14:36:00;-19645.25;;;6.58;100.00
7058;BME280;3570;43.080;25.628;2022-12-18T14:38:51;-19646.13;;;6.61;100.00
7058;BME280;3570;43.080;25.628;2022-12-18T14:41:37;-19645.25;;;6.58;100.00
7058;BME280;3570;43.080;25.628;2022-12-18T14:44:21;-19648.03;;;6.68;100.00
7058;BME280;3570;43.080;25.628;2022-12-18T14:47:14;-19645.09;;;6.57;100.00
7058;BME280;3570;43.080;25.628;2022-12-18T14:49:59;-19631.34;;;6.10;100.00
7058;BME280;3570;43.080;25.628;2022-12-18T14:52:43;-19641.44;;;6.45;100.00
7058;BME280;3570;43.080;25.628;2022-12-18T14:55:27;-19637.94;;;6.33;100.00
7058;BME280;3570;43.080;25.628;2022-12-18T14:58:14;-19639.84;;;6.39;100.00
7058;BME280;3570;43.080;25.628;2022-12-18T15:00:59;-19637.19;;;6.30;100.00
7058;BME280;3570;43.080;25.628;2022-12-18T15:03:43;-19635.28;;;6.24;100.00
7058;BME280;3570;43.080;25.628;2022-12-18T15:06:37;-19646.88;;;6.63;100.00
7058;BME280;3570;43.080;25.628;2022-12-18T15:09:24;-19628.41;;;6.00;100.00
7058;BME280;3570;43.080;25.628;2022-12-18T15:12:49;-19642.47;;;6.48;100.00
7058;BME280;3570;43.080;25.628;2022-12-18T15:18:30;-19644.09;;;6.54;100.00
7058;BME280;3570;43.080;25.628;2022-12-18T15:21:20;-19642.31;;;6.48;100.00
7058;BME280;3570;43.080;25.628;2022-12-18T15:24:26;-19642.03;;;6.47;100.00
7058;BME280;3570;43.080;25.628;2022-12-18T15:27:30;-19642.75;;;6.49;100.00
7058;BME280;3570;43.080;25.628;2022-12-18T15:30:19;-19638.81;;;6.36;100.00
7058;BME280;3570;43.080;25.628;2022-12-18T15:33:26;-19642.31;;;6.48;100.00
7058;BME280;3570;43.080;25.628;2022-12-18T15:36:15;-19638.38;;;6.34;100.00
7058;BME280;3570;43.080;25.628;2022-12-18T15:39:00;-19635.72;;;6.25;100.00
7058;BME280;3570;43.080;25.628;2022-12-18T15:41:44;-19639.25;;;6.37;100.00
7058;BME280;3570;43.080;25.628;2022-12-18T15:44:47;-19638.97;;;6.36;100.00
7058;BME280;3570;43.080;25.628;2022-12-18T15:47:32;-19634.84;;;6.22;100.00
7058;BME280;3570;43.080;25.628;2022-12-18T15:50:16;-19636.59;;;6.28;100.00
7058;BME280;3570;43.080;25.628;2022-12-18T15:53:00;-19634.84;;;6.22;100.00
7058;BME280;3570;43.080;25.628;2022-12-18T15:55:44;-19626.22;;;5.93;100.00
7058;BME280;3570;43.080;25.628;2022-12-18T15:58:47;-19631.50;;;6.11;100.00
7058;BME280;3570;43.080;25.628;2022-12-18T16:01:31;-19628.84;;;6.02;100.00
7058;BME280;3570;43.080;25.628;2022-12-18T16:04:17;-19629.00;;;6.02;100.00
7058;BME280;3570;43.080;25.628;2022-12-18T16:07:04;-19629.44;;;6.04;100.00
7058;BME280;3570;43.080;25.628;2022-12-18T16:09:48;-19623.72;;;5.84;100.00
7058;BME280;3570;43.080;25.628;2022-12-18T16:12:32;-19628.69;;;6.01;100.00
7058;BME280;3570;43.080;25.628;2022-12-18T16:15:16;-19624.75;;;5.88;100.00
7058;BME280;3570;43.080;25.628;2022-12-18T16:18:00;-19629.72;;;6.05;100.00
7058;BME280;3570;43.080;25.628;2022-12-18T16:20:44;-19630.16;;;6.06;100.00
7058;BME280;3570;43.080;25.628;2022-12-18T16:23:29;-19626.06;;;5.92;100.00
7058;BME280;3570;43.080;25.628;2022-12-18T16:26:12;-19626.66;;;5.94;100.00
7058;BME280;3570;43.080;25.628;2022-12-18T16:28:56;-19624.59;;;5.87;100.00
7058;BME280;3570;43.080;25.628;2022-12-18T16:31:42;-19625.63;;;5.91;100.00
7058;BME280;3570;43.080;25.628;2022-12-18T16:34:31;-19628.84;;;6.02;100.00
7058;BME280;3570;43.080;25.628;2022-12-18T16:37:16;-19620.03;;;5.71;100.00